createdAt,value
2023-02-24T02:31:32.188Z,831.17
2023-02-24T02:34:30.061Z,802.90
2023-02-24T02:37:15.062Z,194.60
2023-02-24T02:40:30.036Z,377.77
2023-02-24T02:42:59.456Z,294.97
2023-02-24T02:45:49.129Z,338.57
2023-02-24T02:48:29.655Z,700.73
2023-02-24T02:51:18.488Z,440.00
2023-02-24T02:54:11.024Z,529.03
2023-02-24T02:57:10.068Z,211.10
2023-02-24T02:59:56.070Z,389.93
2023-02-24T03:02:38.012Z,548.23
2023-02-24T03:05:16.028Z,452.17
2023-02-24T03:07:58.059Z,699.27
2023-02-24T03:10:33.918Z,755.70
2023-02-24T03:13:16.061Z,430.23
2023-02-24T03:15:52.041Z,480.73
2023-02-24T03:18:36.070Z,140.47
2023-02-24T03:21:35.040Z,344.90
2023-02-24T03:24:12.113Z,427.90
2023-02-24T03:26:52.132Z,460.97
2023-02-24T03:29:55.023Z,656.63
2023-02-24T03:32:44.221Z,377.13
2023-02-24T03:35:41.028Z,521.40
2023-02-24T03:38:10.226Z,423.80
2023-02-24T03:40:46.040Z,555.97
2023-02-24T03:43:31.752Z,227.17
2023-02-24T03:46:08.095Z,342.30
2023-02-24T03:48:45.172Z,92.37
2023-02-24T03:51:28.061Z,135.07
2023-02-24T03:54:37.025Z,256.07
2023-02-24T03:57:43.056Z,240.23
2023-02-24T04:00:25.866Z,402.93
2023-02-24T04:03:43.082Z,265.10
2023-02-24T04:06:42.225Z,126.27
2023-02-24T04:09:48.087Z,113.50
2023-02-24T04:12:29.308Z,346.40
2023-02-24T04:15:36.097Z,244.73
2023-02-24T04:18:25.350Z,364.17
2023-02-24T04:21:00.052Z,555.37
2023-02-24T04:23:38.956Z,208.87
2023-02-24T04:26:16.024Z,121.50
2023-02-24T04:28:44.105Z,332.23
2023-02-24T04:31:24.628Z,357.83
2023-02-24T04:34:00.263Z,88.70
2023-02-24T04:36:34.073Z,207.73
2023-02-24T04:39:00.992Z,135.10
2023-02-24T04:41:34.097Z,315.67
2023-02-24T04:44:01.829Z,347.07
2023-02-24T04:46:39.121Z,451.37
2023-02-24T04:49:06.018Z,101.70
2023-02-24T04:51:40.070Z,255.33
2023-02-24T04:54:08.505Z,414.63
2023-02-24T04:56:44.029Z,489.00
2023-02-24T04:59:12.137Z,141.43
2023-02-24T05:01:50.101Z,238.13
2023-02-24T05:04:18.008Z,307.77
2023-02-24T05:06:52.031Z,242.10
2023-02-24T05:09:26.091Z,161.50
2023-02-24T05:12:00.060Z,119.83
2023-02-24T05:14:27.213Z,219.10
2023-02-24T05:17:06.118Z,332.97
2023-02-24T05:19:58.035Z,256.93
2023-02-24T05:22:32.059Z,279.83
2023-02-24T05:25:05.090Z,351.90
2023-02-24T05:27:45.055Z,408.37
2023-02-24T05:30:21.106Z,236.90
2023-02-24T05:33:03.078Z,256.27
2023-02-24T05:35:43.112Z,241.13
2023-02-24T05:38:17.161Z,412.97
2023-02-24T05:40:46.782Z,446.87
2023-02-24T05:43:26.102Z,439.30
2023-02-24T05:46:00.067Z,300.53
2023-02-24T05:48:35.097Z,259.70
2023-02-24T05:51:15.059Z,388.00
2023-02-24T05:53:50.058Z,301.40
2023-02-24T05:56:19.277Z,298.53
2023-02-24T05:58:54.764Z,289.77
2023-02-24T06:01:28.047Z,245.77
2023-02-24T06:04:02.082Z,400.93
2023-02-24T06:06:29.178Z,443.07
2023-02-24T06:08:57.841Z,208.40
2023-02-24T06:11:31.093Z,137.20
2023-02-24T06:13:58.098Z,190.60
2023-02-24T06:16:33.088Z,218.53
2023-02-24T06:19:00.415Z,220.00
2023-02-24T06:21:36.030Z,239.23
2023-02-24T06:24:03.187Z,232.67
2023-02-24T06:26:37.105Z,168.43
2023-02-24T06:29:12.085Z,158.07
2023-02-24T06:31:39.370Z,149.77
2023-02-24T06:34:25.163Z,222.57
2023-02-24T06:36:52.922Z,170.27
2023-02-24T06:39:26.108Z,111.67
2023-02-24T06:42:00.152Z,75.50
2023-02-24T06:44:34.099Z,51.27
2023-02-24T06:47:01.753Z,77.43
2023-02-24T06:49:36.072Z,60.23
2023-02-24T06:52:10.153Z,73.50
2023-02-24T06:54:51.055Z,92.97
2023-02-24T06:57:25.051Z,99.67
2023-02-24T06:59:52.405Z,120.50
2023-02-24T07:02:26.110Z,106.83
2023-02-24T07:05:02.090Z,76.40
2023-02-24T07:07:29.260Z,70.13
2023-02-24T07:10:04.109Z,64.33
2023-02-24T07:12:31.254Z,58.50
2023-02-24T07:15:05.087Z,68.67
2023-02-24T07:17:33.410Z,65.17
2023-02-24T07:20:17.065Z,42.57
2023-02-24T07:22:55.385Z,41.33
2023-02-24T07:25:44.206Z,50.47
2023-02-24T07:28:11.581Z,37.03
2023-02-24T07:30:47.165Z,36.03
2023-02-24T07:33:21.138Z,45.47
2023-02-24T07:36:05.085Z,38.77
2023-02-24T07:38:32.186Z,39.97
2023-02-24T07:41:06.100Z,39.00
2023-02-24T07:43:41.142Z,36.73
2023-02-24T07:46:35.156Z,50.67
2023-02-24T07:49:03.726Z,39.53
2023-02-24T07:51:39.077Z,47.30
2023-02-24T07:54:08.714Z,40.27
2023-02-24T07:56:52.086Z,37.23
2023-02-24T07:59:22.035Z,37.70
2023-02-24T08:02:02.089Z,32.47
2023-02-24T08:04:32.979Z,34.77
2023-02-24T08:07:09.111Z,28.10
2023-02-24T08:10:04.950Z,35.60
2023-02-24T08:12:41.088Z,23.83
2023-02-24T08:15:24.296Z,34.23
2023-02-24T08:18:07.086Z,27.20
2023-02-24T08:20:58.054Z,23.37
2023-02-24T08:23:32.138Z,28.07
2023-02-24T08:26:02.589Z,19.07
2023-02-24T08:28:36.071Z,25.23
2023-02-24T08:31:11.203Z,23.83
2023-02-24T08:33:44.876Z,23.00
2023-02-24T08:36:19.153Z,18.30
2023-02-24T08:38:52.241Z,18.08
2023-02-24T08:41:36.172Z,20.58
2023-02-24T08:44:03.246Z,17.05
2023-02-24T08:46:44.176Z,18.95
2023-02-24T08:49:12.279Z,20.77
2023-02-24T08:51:50.269Z,19.95
2023-02-24T08:54:38.120Z,23.25
2023-02-24T08:57:22.103Z,21.33
2023-02-24T09:00:14.154Z,18.63
2023-02-24T09:02:55.127Z,17.92
2023-02-24T09:05:31.121Z,13.70
2023-02-24T09:07:58.210Z,18.65
2023-02-24T09:10:33.108Z,18.55
2023-02-24T09:13:08.088Z,21.20
2023-02-24T09:15:48.160Z,15.82
2023-02-24T09:18:15.409Z,20.02
2023-02-24T09:21:22.677Z,18.50
2023-02-24T09:23:57.070Z,15.25
2023-02-24T09:26:32.097Z,16.90
2023-02-24T09:28:59.799Z,21.60
2023-02-24T09:31:47.326Z,13.65
2023-02-24T09:34:30.121Z,17.10
2023-02-24T09:37:12.162Z,14.63
2023-02-24T09:39:56.825Z,20.38
2023-02-24T09:42:53.091Z,17.85
2023-02-24T09:45:33.465Z,18.92
2023-02-24T09:48:28.120Z,18.10
2023-02-24T09:51:11.116Z,20.98
2023-02-24T09:53:56.074Z,15.00
2023-02-24T09:56:42.710Z,18.02
2023-02-24T09:59:33.163Z,17.17
2023-02-24T10:02:39.422Z,22.37
2023-02-24T10:05:35.147Z,21.93
2023-02-24T10:08:02.101Z,20.83
2023-02-24T10:10:45.107Z,23.35
2023-02-24T10:13:30.707Z,20.17
2023-02-24T10:16:15.218Z,24.83
2023-02-24T10:19:37.318Z,24.07
2023-02-24T10:22:15.248Z,29.13
2023-02-24T10:24:56.204Z,22.30
2023-02-24T10:27:48.144Z,22.23
2023-02-24T10:30:41.059Z,30.00
2023-02-24T10:33:37.203Z,29.33
2023-02-24T10:36:21.669Z,34.83
2023-02-24T10:38:57.218Z,27.40
2023-02-24T10:41:29.498Z,29.03
2023-02-24T10:44:05.270Z,31.23
2023-02-24T10:46:43.364Z,28.07
2023-02-24T10:49:16.718Z,29.53
2023-02-24T10:51:59.176Z,41.37
2023-02-24T10:54:55.088Z,40.50
2023-02-24T10:57:57.952Z,28.33
2023-02-24T11:00:57.235Z,33.57
2023-02-24T11:03:48.241Z,32.93
2023-02-24T11:06:42.527Z,28.83
2023-02-24T11:09:36.157Z,28.23
2023-02-24T11:12:45.197Z,29.53
2023-02-24T11:15:44.474Z,25.03
2023-02-24T11:18:24.585Z,32.10
2023-02-24T11:21:05.151Z,34.17
2023-02-24T11:24:03.131Z,28.90
2023-02-24T11:26:41.625Z,31.27
2023-02-24T11:29:48.107Z,27.03
2023-02-24T11:33:04.137Z,28.17
2023-02-24T11:36:07.521Z,18.90
2023-02-24T11:38:52.125Z,23.27
2023-02-24T11:41:33.643Z,22.30
2023-02-24T11:44:24.153Z,31.93
2023-02-24T11:47:06.248Z,22.97
2023-02-24T11:50:07.169Z,19.98
2023-02-24T11:52:40.366Z,17.20
2023-02-24T11:55:33.122Z,18.90
2023-02-24T11:58:11.550Z,24.83
2023-02-24T12:00:58.175Z,19.95
2023-02-24T12:03:53.810Z,19.15
2023-02-24T12:06:53.113Z,19.33
2023-02-24T12:09:33.140Z,22.73
2023-02-24T12:13:15.155Z,13.95
2023-02-24T12:15:58.911Z,13.80
2023-02-24T12:18:46.140Z,12.13
2023-02-24T12:21:38.209Z,15.25
2023-02-24T12:24:24.021Z,16.60
2023-02-24T12:27:21.852Z,17.58
2023-02-24T12:30:29.172Z,16.00
2023-02-24T12:33:30.213Z,13.10
2023-02-24T12:37:01.176Z,16.98
2023-02-24T12:39:49.133Z,11.55
2023-02-24T12:42:49.124Z,16.85
2023-02-24T12:45:46.263Z,17.52
2023-02-24T12:48:52.237Z,17.58
2023-02-24T12:51:49.350Z,12.93
2023-02-24T12:54:32.210Z,15.97
2023-02-24T12:58:13.237Z,18.30
2023-02-24T13:01:34.256Z,16.80
2023-02-24T13:04:22.736Z,16.87
2023-02-24T13:07:19.228Z,11.63
2023-02-24T13:10:27.023Z,25.47
2023-02-24T13:13:41.180Z,20.83
2023-02-24T13:16:19.404Z,20.00
2023-02-24T13:18:53.250Z,10.60
2023-02-24T13:21:31.158Z,16.02
2023-02-24T13:24:08.166Z,16.38
2023-02-24T13:26:42.134Z,25.38
2023-02-24T13:29:23.168Z,19.75
2023-02-24T13:32:00.265Z,17.67
2023-02-24T13:34:40.177Z,11.70
2023-02-24T13:37:10.356Z,15.67
2023-02-24T13:39:51.133Z,15.60
2023-02-24T13:42:25.716Z,25.77
2023-02-24T13:45:23.266Z,18.00
2023-02-24T13:48:50.142Z,17.77
2023-02-24T13:52:06.196Z,15.97
2023-02-24T13:55:08.207Z,18.47
2023-02-24T13:57:57.208Z,14.47
2023-02-24T14:01:05.035Z,14.73
2023-02-24T14:03:39.291Z,16.50
2023-02-24T14:06:21.454Z,20.27
2023-02-24T14:09:04.193Z,14.67
2023-02-24T14:11:44.385Z,18.13
2023-02-24T14:14:25.213Z,16.93
2023-02-24T14:16:59.142Z,18.47
2023-02-24T14:19:33.155Z,26.10
2023-02-24T14:22:08.311Z,23.43
2023-02-24T14:24:35.673Z,21.67
2023-02-24T14:27:09.208Z,22.77
2023-02-24T14:29:44.431Z,19.17
2023-02-24T14:32:31.465Z,21.47
2023-02-24T14:35:32.382Z,22.33
2023-02-24T14:38:07.282Z,22.53
2023-02-24T14:40:34.311Z,24.37
2023-02-24T14:43:08.304Z,21.00
2023-02-24T14:45:35.221Z,25.70
2023-02-24T14:48:08.201Z,22.87
2023-02-24T14:50:42.197Z,21.93
2023-02-24T14:53:18.046Z,21.40
2023-02-24T14:55:59.841Z,23.73
2023-02-24T14:59:28.275Z,28.17
2023-02-24T15:02:04.235Z,25.27
2023-02-24T15:04:39.937Z,23.83
2023-02-24T15:09:58.226Z,27.20
2023-02-24T15:12:49.486Z,24.17
2023-02-24T15:15:33.281Z,21.43
2023-02-24T15:18:16.185Z,21.90
2023-02-24T15:20:52.689Z,26.97
2023-02-24T15:23:38.195Z,24.40
2023-02-24T15:26:30.240Z,24.47
2023-02-24T15:29:14.260Z,27.90
2023-02-24T15:31:55.335Z,26.27
2023-02-24T15:34:52.748Z,25.67
2023-02-24T15:37:48.254Z,25.37
2023-02-24T15:40:27.230Z,25.33
2023-02-24T15:43:38.336Z,24.13
2023-02-24T15:46:37.429Z,25.17
2023-02-24T15:49:14.221Z,24.60
2023-02-24T15:51:47.594Z,25.97
2023-02-24T15:54:33.171Z,25.83
2023-02-24T15:57:10.237Z,27.03
2023-02-24T15:59:37.157Z,31.20
2023-02-24T16:02:19.303Z,29.73
2023-02-24T16:04:55.155Z,29.93
2023-02-24T16:07:30.629Z,26.50
2023-02-24T16:10:06.205Z,32.80
2023-02-24T16:12:39.577Z,27.03
2023-02-24T16:15:29.187Z,28.37
2023-02-24T16:18:04.203Z,24.27
2023-02-24T16:20:38.206Z,24.17
2023-02-24T16:23:06.373Z,29.23
2023-02-24T16:25:50.213Z,24.87
2023-02-24T16:28:27.163Z,21.63
2023-02-24T16:31:01.312Z,21.60
2023-02-24T16:33:54.114Z,24.57
2023-02-24T16:36:38.273Z,22.80
2023-02-24T16:39:05.737Z,18.60
2023-02-24T16:41:40.186Z,18.43
2023-02-24T16:44:14.173Z,20.60
2023-02-24T16:46:51.222Z,17.27
2023-02-24T16:49:27.276Z,16.77
2023-02-24T16:51:54.227Z,15.47
2023-02-24T16:54:28.228Z,19.33
2023-02-24T16:56:58.925Z,14.43
2023-02-24T16:59:35.178Z,18.03
2023-02-24T17:02:03.457Z,15.17
2023-02-24T17:04:38.310Z,15.97
2023-02-24T17:07:05.329Z,18.77
2023-02-24T17:09:40.246Z,20.77
2023-02-24T17:12:14.230Z,12.40
2023-02-24T17:14:48.233Z,19.20
2023-02-24T17:17:15.515Z,14.67
2023-02-24T17:19:49.247Z,16.43
2023-02-24T17:22:23.175Z,15.87
2023-02-24T17:24:57.238Z,17.23
2023-02-24T17:27:31.190Z,22.60
2023-02-24T17:30:04.460Z,15.60
2023-02-24T17:32:39.501Z,15.13
2023-02-24T17:35:20.325Z,15.13
2023-02-24T17:37:47.643Z,17.87
2023-02-24T17:40:25.309Z,11.80
2023-02-24T17:42:52.757Z,13.33
2023-02-24T17:45:28.567Z,14.87
2023-02-24T17:48:02.574Z,11.83
2023-02-24T17:50:36.346Z,12.37
2023-02-24T17:53:10.459Z,16.83
2023-02-24T17:56:01.041Z,13.73
2023-02-24T17:58:35.546Z,15.33
2023-02-24T18:01:12.329Z,14.90
2023-02-24T18:03:46.545Z,17.03
2023-02-24T18:06:16.005Z,16.83
2023-02-24T18:08:50.470Z,16.10
2023-02-24T18:11:26.264Z,18.60
2023-02-24T18:14:01.226Z,21.77
2023-02-24T18:16:28.846Z,25.77
2023-02-24T18:19:04.245Z,23.93
2023-02-24T18:21:39.253Z,31.70
2023-02-24T18:24:16.439Z,33.70
2023-02-24T18:26:52.231Z,33.73
2023-02-24T18:29:19.168Z,36.70
2023-02-24T18:31:52.457Z,31.87
2023-02-24T18:34:34.205Z,33.53
2023-02-24T18:37:14.317Z,29.37
2023-02-24T18:39:41.256Z,30.53
2023-02-24T18:42:15.240Z,30.33
2023-02-24T18:44:49.279Z,35.43
2023-02-24T18:47:16.405Z,30.13
2023-02-24T18:49:50.226Z,34.67
2023-02-24T18:52:17.227Z,32.57
2023-02-24T18:54:50.240Z,32.67
2023-02-24T18:57:17.207Z,37.87
2023-02-24T18:59:51.239Z,35.17
2023-02-24T19:02:18.618Z,45.87
2023-02-24T19:04:52.307Z,42.23
2023-02-24T19:07:19.398Z,39.43
2023-02-24T19:09:57.237Z,42.97
2023-02-24T19:12:30.232Z,41.10
2023-02-24T19:14:57.918Z,34.57
2023-02-24T19:17:31.239Z,45.43
2023-02-24T19:20:05.352Z,40.47
2023-02-24T19:22:39.218Z,42.20
2023-02-24T19:25:13.345Z,42.27
2023-02-24T19:27:41.539Z,44.17
2023-02-24T19:30:16.485Z,40.73
2023-02-24T19:32:43.653Z,45.47
2023-02-24T19:35:17.250Z,54.27
2023-02-24T19:37:51.343Z,49.30
2023-02-24T19:40:26.207Z,46.63
2023-02-24T19:42:59.261Z,50.43
2023-02-24T19:45:33.233Z,50.83
2023-02-24T19:48:06.305Z,48.33
2023-02-24T19:50:41.268Z,49.23
2023-02-24T19:53:09.642Z,51.40
2023-02-24T19:55:44.326Z,56.30
2023-02-24T19:58:17.219Z,57.40
2023-02-24T20:00:51.402Z,54.03
2023-02-24T20:03:18.419Z,48.33
2023-02-24T20:05:52.220Z,49.90
2023-02-24T20:08:19.176Z,47.87
2023-02-24T20:10:52.228Z,56.10
2023-02-24T20:13:19.167Z,48.37
2023-02-24T20:15:52.258Z,52.23
2023-02-24T20:18:25.244Z,55.17
2023-02-24T20:21:04.275Z,52.77
2023-02-24T20:23:41.247Z,58.47
2023-02-24T20:26:14.041Z,47.60
2023-02-24T20:28:49.253Z,52.97
2023-02-24T20:31:29.274Z,52.23
2023-02-24T20:33:57.338Z,46.57
2023-02-24T20:36:37.263Z,50.97
2023-02-24T20:39:07.285Z,49.77
2023-02-24T20:41:41.352Z,45.80
2023-02-24T20:44:09.259Z,48.33
2023-02-24T20:46:43.283Z,48.97
2023-02-24T20:49:17.163Z,59.13
2023-02-24T20:51:51.247Z,54.87
2023-02-24T20:54:25.226Z,53.37
2023-02-24T20:56:59.477Z,45.90
2023-02-24T20:59:26.496Z,48.30
2023-02-24T21:02:01.471Z,43.77
2023-02-24T21:04:36.371Z,46.30
2023-02-24T21:07:10.263Z,47.67
2023-02-24T21:09:37.895Z,39.10
2023-02-24T21:12:12.270Z,48.63
2023-02-24T21:14:39.228Z,47.40
2023-02-24T21:17:12.301Z,42.43
2023-02-24T21:19:39.520Z,41.67
2023-02-24T21:22:13.260Z,35.73
2023-02-24T21:24:40.195Z,39.87
2023-02-24T21:27:13.251Z,41.83
2023-02-24T21:29:40.174Z,37.77
2023-02-24T21:32:13.338Z,43.53
2023-02-24T21:34:48.378Z,34.90
2023-02-24T21:37:22.300Z,31.83
2023-02-24T21:39:56.255Z,32.37
2023-02-24T21:42:30.236Z,36.57
2023-02-24T21:45:09.227Z,28.47
2023-02-24T21:47:37.053Z,27.07
2023-02-24T21:50:14.285Z,30.63
2023-02-24T21:52:49.326Z,27.73
2023-02-24T21:55:23.227Z,25.37
2023-02-24T21:57:50.185Z,27.07
2023-02-24T22:00:25.465Z,31.53
2023-02-24T22:03:01.269Z,32.70
2023-02-24T22:05:35.265Z,30.67
2023-02-24T22:08:09.416Z,31.07
2023-02-24T22:10:43.288Z,26.97
2023-02-24T22:13:16.293Z,18.07
2023-02-24T22:15:52.595Z,17.60
2023-02-24T22:18:28.517Z,13.43
2023-02-24T22:20:55.636Z,12.80
2023-02-24T22:23:29.397Z,11.43
2023-02-24T22:25:56.480Z,12.33
2023-02-24T22:28:30.289Z,10.50
2023-02-24T22:30:58.063Z,10.47
2023-02-24T22:33:32.272Z,7.40
2023-02-24T22:36:24.466Z,10.10
2023-02-24T22:38:59.583Z,11.67
2023-02-24T22:41:41.374Z,10.23
2023-02-24T22:44:16.337Z,9.37
2023-02-24T22:46:43.543Z,10.80
2023-02-24T22:49:17.357Z,9.33
2023-02-24T22:51:52.381Z,11.97
2023-02-24T22:54:26.441Z,12.50
2023-02-24T22:56:56.246Z,12.70
2023-02-24T22:59:30.376Z,12.97
2023-02-24T23:01:57.572Z,11.07
2023-02-24T23:04:31.342Z,15.13
2023-02-24T23:07:05.277Z,13.80
2023-02-24T23:09:38.279Z,17.53
2023-02-24T23:12:05.730Z,13.53
2023-02-24T23:14:39.261Z,13.10
2023-02-24T23:17:06.150Z,12.40
2023-02-24T23:19:40.291Z,15.93
2023-02-24T23:22:14.316Z,12.10
2023-02-24T23:24:41.225Z,15.57
2023-02-24T23:27:16.258Z,10.67
2023-02-24T23:29:49.323Z,11.40
2023-02-24T23:32:16.436Z,16.70
2023-02-24T23:34:50.249Z,15.07
2023-02-24T23:37:30.264Z,14.30
2023-02-24T23:39:57.832Z,13.00
2023-02-24T23:42:24.831Z,15.33
2023-02-24T23:44:59.230Z,17.67
2023-02-24T23:47:26.285Z,17.57
2023-02-24T23:49:59.249Z,16.10
2023-02-24T23:52:26.781Z,16.80
2023-02-24T23:55:00.332Z,15.93
2023-02-24T23:57:28.740Z,17.20
